Canaveral Natl Seashore, Florida
Current Conditions -  °F | °C
As of 12:58 AM on Monday 26 Jan 2015 (Local Time) from KTTS Reporting Station
Overcast Overcast  
Wind Chill: 53°   Ceiling: 19000
Heat Index: 53°   Visibility: 10mi
Dew Point: 46°   Wind: 6mph
Humidity: 80%   Direction: 200°SSW
Pressure: 29.92"   Gusts: NA
Location:  28.75°N, 80.75°W
Report Text: KTTS 260558Z AUTO 20005KT 10SM OVC190 11/08 A2992 RMK AO2 SLP135 T01140080 10138 20098 57018
Loading
Personal Weather Stations






























Interactive Weather Map New forecast layout! Learn more

10-Day Weather Forecast

Advertisements
Track Severe Weather on mobile